createdAt,value
2018-11-14T00:00:55.350Z,84.59
2018-11-14T00:03:24.841Z,84.43
2018-11-14T00:05:55.382Z,84.54
2018-11-14T00:08:26.008Z,84.55
2018-11-14T00:10:55.648Z,84.44
2018-11-14T00:13:26.233Z,84.15
2018-11-14T00:15:56.428Z,84.80
2018-11-14T00:18:26.384Z,84.67
2018-11-14T00:20:55.979Z,84.42
2018-11-14T00:23:26.337Z,84.14
2018-11-14T00:25:56.100Z,84.48
2018-11-14T00:28:26.130Z,84.60
2018-11-14T00:30:55.535Z,84.65
2018-11-14T00:33:24.996Z,84.84
2018-11-14T00:35:54.594Z,84.59
2018-11-14T00:38:23.850Z,84.95
2018-11-14T00:40:53.444Z,84.45
2018-11-14T00:43:36.716Z,84.51
2018-11-14T00:46:05.629Z,84.87
2018-11-14T00:48:34.455Z,84.56
2018-11-14T00:51:04.113Z,84.53
2018-11-14T00:53:33.840Z,84.51
2018-11-14T00:56:02.625Z,84.62
2018-11-14T00:58:32.122Z,84.69
2018-11-14T01:01:02.285Z,84.39
2018-11-14T01:03:31.796Z,84.94
2018-11-14T01:06:00.612Z,85.28
2018-11-14T01:08:30.892Z,85.29
2018-11-14T01:11:00.137Z,85.15
2018-11-14T01:13:29.463Z,85.46
2018-11-14T01:15:58.905Z,84.98
2018-11-14T01:18:27.735Z,85.18
2018-11-14T01:20:56.556Z,85.04
2018-11-14T01:23:27.590Z,85.25
2018-11-14T01:25:56.432Z,85.74
2018-11-14T01:28:27.448Z,85.89
2018-11-14T01:30:56.220Z,86.18
2018-11-14T01:33:26.110Z,86.05
2018-11-14T01:35:55.572Z,86.86
2018-11-14T01:38:25.030Z,86.72
2018-11-14T01:40:54.678Z,86.49
2018-11-14T01:43:24.512Z,86.73
2018-11-14T01:45:53.934Z,86.76
2018-11-14T01:48:23.184Z,86.81
2018-11-14T01:50:54.593Z,86.99
2018-11-14T01:53:24.687Z,87.13
2018-11-14T01:55:55.229Z,87.38
2018-11-14T01:58:24.329Z,87.36
2018-11-14T02:00:54.306Z,87.12
2018-11-14T02:03:24.455Z,87.20
2018-11-14T02:05:53.993Z,87.20
2018-11-14T02:08:24.270Z,87.54
2018-11-14T02:10:54.710Z,87.49
2018-11-14T02:13:24.473Z,87.59
2018-11-14T02:15:54.906Z,87.70
2018-11-14T02:18:25.521Z,88.08
2018-11-14T02:20:54.855Z,87.77
2018-11-14T02:23:24.293Z,88.16
2018-11-14T02:25:54.185Z,88.36
2018-11-14T02:28:23.896Z,88.05
2018-11-14T02:30:53.422Z,88.39
2018-11-14T02:33:23.573Z,88.06
2018-11-14T02:35:52.742Z,88.37
2018-11-14T02:38:22.377Z,88.44
2018-11-14T02:40:51.499Z,88.07
2018-11-14T02:43:20.302Z,88.43
2018-11-14T02:45:49.115Z,88.80
2018-11-14T02:48:17.952Z,88.80
2018-11-14T02:50:47.798Z,88.69
2018-11-14T02:53:16.653Z,88.71
2018-11-14T02:55:47.132Z,88.23
2018-11-14T02:58:15.893Z,88.23
2018-11-14T03:00:45.506Z,87.81
2018-11-14T03:03:15.025Z,88.78
2018-11-14T03:05:44.610Z,88.38
2018-11-14T03:08:13.904Z,87.99
2018-11-14T03:10:43.366Z,88.32
2018-11-14T03:13:13.208Z,87.98
2018-11-14T03:15:42.544Z,88.28
2018-11-14T03:18:11.314Z,88.59
2018-11-14T03:20:40.651Z,88.45
2018-11-14T03:23:09.418Z,88.60
2018-11-14T03:25:38.797Z,88.42
2018-11-14T03:28:07.631Z,88.43
2018-11-14T03:30:36.458Z,88.19
2018-11-14T03:33:05.570Z,88.21
2018-11-14T03:35:39.635Z,87.75
2018-11-14T03:38:08.422Z,87.33
2018-11-14T03:40:38.461Z,87.64
2018-11-14T03:43:07.728Z,87.30
2018-11-14T03:45:36.570Z,87.79
2018-11-14T03:48:05.433Z,87.99
2018-11-14T03:50:34.922Z,87.82
2018-11-14T03:53:04.575Z,88.01
2018-11-14T03:55:33.385Z,87.68
2018-11-14T03:58:02.215Z,87.90
2018-11-14T04:00:31.509Z,87.82
2018-11-14T04:03:00.812Z,87.65
2018-11-14T04:05:30.322Z,87.81
2018-11-14T04:07:59.663Z,87.92
2018-11-14T04:10:29.636Z,87.56
2018-11-14T04:12:59.473Z,87.34
2018-11-14T04:15:28.945Z,87.63
2018-11-14T04:17:57.737Z,87.23
2018-11-14T04:20:27.006Z,87.92
2018-11-14T04:22:55.847Z,87.71
2018-11-14T04:25:25.366Z,87.45
2018-11-14T04:27:54.584Z,87.73
2018-11-14T04:30:23.985Z,87.83
2018-11-14T04:32:53.074Z,88.22
2018-11-14T04:35:22.644Z,87.86
2018-11-14T04:37:53.659Z,87.61
2018-11-14T04:40:23.690Z,87.15
2018-11-14T04:42:52.986Z,87.23
2018-11-14T04:45:23.845Z,87.83
2018-11-14T04:47:53.394Z,87.65
2018-11-14T04:50:24.619Z,87.46
2018-11-14T04:52:55.077Z,87.76
2018-11-14T04:55:25.551Z,87.67
2018-11-14T04:57:55.379Z,87.63
2018-11-14T05:00:27.015Z,88.08
2018-11-14T05:02:56.602Z,88.04
2018-11-14T05:05:26.235Z,88.25
2018-11-14T05:07:56.607Z,88.27
2018-11-14T05:10:27.315Z,88.50
2018-11-14T05:12:56.225Z,88.29
2018-11-14T05:15:26.954Z,88.26
2018-11-14T05:17:57.028Z,88.05
2018-11-14T05:20:26.877Z,88.02
2018-11-14T05:22:55.671Z,88.45
2018-11-14T05:25:24.827Z,88.85
2018-11-14T05:27:54.854Z,89.10
2018-11-14T05:30:24.478Z,88.99
2018-11-14T05:32:54.296Z,88.73
2018-11-14T05:35:23.926Z,88.55
2018-11-14T05:37:53.633Z,88.24
2018-11-14T05:40:23.785Z,88.36
2018-11-14T05:42:53.972Z,87.89
2018-11-14T05:45:24.598Z,88.22
2018-11-14T05:47:54.493Z,87.96
2018-11-14T05:50:25.126Z,87.90
2018-11-14T05:52:56.053Z,88.02
2018-11-14T05:55:25.666Z,88.17
2018-11-14T05:57:55.486Z,88.10
2018-11-14T06:00:29.856Z,87.99
2018-11-14T06:03:01.240Z,88.37
2018-11-14T06:05:30.737Z,88.05
2018-11-14T06:07:59.581Z,88.67
2018-11-14T06:13:05.993Z,88.56
2018-11-14T06:15:35.616Z,88.52
2018-11-14T06:18:10.142Z,88.62
2018-11-14T06:20:39.769Z,88.63
2018-11-14T06:23:08.858Z,88.45
2018-11-14T06:25:38.662Z,88.20
2018-11-14T06:28:08.754Z,88.45
2018-11-14T06:30:38.076Z,88.37
2018-11-14T06:33:12.580Z,88.15
2018-11-14T06:35:41.375Z,87.94
2018-11-14T06:38:10.182Z,87.85
2018-11-14T06:40:39.080Z,87.23
2018-11-14T06:43:08.251Z,87.84
2018-11-14T06:45:38.270Z,87.65
2018-11-14T06:48:08.659Z,88.21
2018-11-14T06:50:38.244Z,87.96
2018-11-14T06:53:08.072Z,88.24
2018-11-14T06:55:36.855Z,87.97
2018-11-14T06:58:05.718Z,88.14
2018-11-14T07:00:35.899Z,88.55
2018-11-14T07:03:12.259Z,88.09
2018-11-14T07:05:42.078Z,87.96
2018-11-14T07:08:11.681Z,88.08
2018-11-14T07:10:41.125Z,87.93
2018-11-14T07:13:13.942Z,87.77
2018-11-14T07:15:43.861Z,87.54
2018-11-14T07:18:13.088Z,87.81
2018-11-14T07:20:43.962Z,87.37
2018-11-14T07:23:12.750Z,87.29
2018-11-14T07:25:41.595Z,87.35
2018-11-14T07:28:17.789Z,88.10
2018-11-14T07:30:46.781Z,86.95
2018-11-14T07:33:15.718Z,86.52
2018-11-14T07:35:44.945Z,86.83
2018-11-14T07:38:48.343Z,87.20
2018-11-14T07:41:30.350Z,86.79
2018-11-14T07:43:59.853Z,86.33
2018-11-14T07:46:29.785Z,85.94
2018-11-14T07:48:58.692Z,86.39
2018-11-14T07:51:28.596Z,85.89
2018-11-14T07:53:58.585Z,85.15
2018-11-14T07:56:27.538Z,85.89
2018-11-14T07:58:56.693Z,85.33
2018-11-14T08:01:26.228Z,85.42
2018-11-14T08:03:55.913Z,85.49
2018-11-14T08:09:01.912Z,85.47
2018-11-14T08:11:30.758Z,85.42
2018-11-14T08:14:00.694Z,85.61
2018-11-14T08:16:30.097Z,84.87
2018-11-14T08:18:59.626Z,84.60
2018-11-14T08:21:32.330Z,84.39
2018-11-14T08:24:01.118Z,84.47
2018-11-14T08:26:29.911Z,83.84
2018-11-14T08:28:59.551Z,83.99
2018-11-14T08:31:28.440Z,84.13
2018-11-14T08:33:57.426Z,84.26
2018-11-14T08:36:26.246Z,83.98
2018-11-14T08:38:55.425Z,84.01
2018-11-14T08:41:25.995Z,83.20
2018-11-14T08:43:55.912Z,83.04
2018-11-14T08:46:25.676Z,83.23
2018-11-14T08:48:55.226Z,83.20
2018-11-14T08:51:25.747Z,82.78
2018-11-14T08:53:56.394Z,82.32
2018-11-14T08:56:25.473Z,82.95
2018-11-14T08:58:55.299Z,82.19
2018-11-14T09:01:26.333Z,81.90
2018-11-14T09:03:57.394Z,81.79
2018-11-14T09:06:27.078Z,81.69
2018-11-14T09:08:56.549Z,81.36
2018-11-14T09:11:25.784Z,80.80
2018-11-14T09:13:55.351Z,81.33
2018-11-14T09:16:25.633Z,80.44
2018-11-14T09:18:55.401Z,80.33
2018-11-14T09:21:24.883Z,80.12
2018-11-14T09:23:54.798Z,80.32
2018-11-14T09:26:24.254Z,79.64
2018-11-14T09:28:53.830Z,80.28
2018-11-14T09:31:23.111Z,80.00
2018-11-14T09:33:52.934Z,80.03
2018-11-14T09:36:21.880Z,79.47
2018-11-14T09:38:52.206Z,80.04
2018-11-14T09:41:21.101Z,79.75
2018-11-14T09:43:50.015Z,79.82
2018-11-14T09:46:18.825Z,80.14
2018-11-14T09:48:47.651Z,80.05
2018-11-14T09:51:17.078Z,79.93
2018-11-14T09:53:46.300Z,80.26
2018-11-14T09:56:15.141Z,80.72
2018-11-14T09:58:44.008Z,80.66
2018-11-14T10:01:13.528Z,80.68
2018-11-14T10:03:43.120Z,79.92
2018-11-14T10:06:12.525Z,79.46
2018-11-14T10:08:41.326Z,79.95
2018-11-14T10:11:10.853Z,80.29
2018-11-14T10:13:39.683Z,79.49
2018-11-14T10:16:09.432Z,80.23
2018-11-14T10:18:38.219Z,79.73
2018-11-14T10:21:08.508Z,79.14
2018-11-14T10:23:37.286Z,78.28
2018-11-14T10:26:06.117Z,77.96
2018-11-14T10:28:34.972Z,78.56
2018-11-14T10:31:03.879Z,78.68
2018-11-14T10:33:32.846Z,78.41
2018-11-14T10:36:03.021Z,77.98
2018-11-14T10:38:31.868Z,77.68
2018-11-14T10:41:00.705Z,77.65
2018-11-14T10:43:29.613Z,77.69
2018-11-14T10:45:58.488Z,77.69
2018-11-14T10:48:27.463Z,77.17
2018-11-14T10:50:57.480Z,77.16
2018-11-14T10:53:26.966Z,76.99
2018-11-14T10:55:56.809Z,76.44
2018-11-14T10:58:26.256Z,77.23
2018-11-14T11:01:03.950Z,76.93
2018-11-14T11:03:40.460Z,77.44
2018-11-14T11:06:15.296Z,76.88
2018-11-14T11:08:49.422Z,76.63
2018-11-14T11:13:26.459Z,76.25
2018-11-14T11:16:01.235Z,75.68
2018-11-14T11:18:31.709Z,75.42
2018-11-14T11:21:01.293Z,75.71
2018-11-14T11:23:30.235Z,75.30
2018-11-14T11:25:59.724Z,74.65
2018-11-14T11:28:28.670Z,74.84
2018-11-14T11:30:57.700Z,73.90
2018-11-14T11:33:27.165Z,74.43
2018-11-14T11:35:58.226Z,74.85
2018-11-14T11:38:27.497Z,74.44
2018-11-14T11:40:56.600Z,73.94
2018-11-14T11:43:25.705Z,73.89
2018-11-14T11:45:55.734Z,74.43
2018-11-14T11:48:26.698Z,73.45
2018-11-14T11:50:56.350Z,73.31
2018-11-14T11:53:26.303Z,73.73
2018-11-14T11:55:56.124Z,73.61
2018-11-14T11:58:25.856Z,73.71
2018-11-14T12:01:05.345Z,73.56
2018-11-14T12:03:35.243Z,74.05
2018-11-14T12:06:06.027Z,73.88
2018-11-14T12:08:35.043Z,73.69
2018-11-14T12:11:05.162Z,73.94
2018-11-14T12:13:34.208Z,73.16
2018-11-14T12:16:04.421Z,73.41
2018-11-14T12:18:33.560Z,73.41
2018-11-14T12:21:03.531Z,73.34
2018-11-14T12:23:32.457Z,73.35
2018-11-14T12:26:01.758Z,73.27
2018-11-14T12:28:30.861Z,73.32
2018-11-14T12:31:00.532Z,73.89
2018-11-14T12:33:29.864Z,73.55
2018-11-14T12:38:44.996Z,73.68
2018-11-14T12:41:14.520Z,72.87
2018-11-14T12:43:43.463Z,73.21
2018-11-14T12:46:12.620Z,72.63
2018-11-14T12:48:41.802Z,72.43
2018-11-14T12:51:14.462Z,73.32
2018-11-14T12:53:43.900Z,72.76
2018-11-14T12:56:27.378Z,72.67
2018-11-14T12:58:56.213Z,72.66
2018-11-14T13:01:26.661Z,72.92
2018-11-14T13:03:55.954Z,73.46
2018-11-14T13:06:27.080Z,73.39
2018-11-14T13:08:56.875Z,74.18
2018-11-14T13:11:29.181Z,73.65
2018-11-14T13:13:58.134Z,74.53
2018-11-14T13:16:28.401Z,74.89
2018-11-14T13:18:58.200Z,73.36
2018-11-14T13:21:27.503Z,74.46
2018-11-14T13:23:56.507Z,75.08
2018-11-14T13:26:27.094Z,75.01
2018-11-14T13:28:56.680Z,75.03
2018-11-14T13:31:25.673Z,74.86
2018-11-14T13:33:55.219Z,75.20
2018-11-14T13:36:25.865Z,75.07
2018-11-14T13:38:55.618Z,74.91
2018-11-14T13:41:25.458Z,75.55
2018-11-14T13:43:55.024Z,75.57
2018-11-14T13:46:24.238Z,75.10
2018-11-14T13:48:54.371Z,75.35
2018-11-14T13:51:25.086Z,75.59
2018-11-14T13:53:55.248Z,75.13
2018-11-14T13:56:25.219Z,76.32
2018-11-14T13:58:54.768Z,75.73
2018-11-14T14:01:25.246Z,76.00
2018-11-14T14:03:55.767Z,76.17
2018-11-14T14:06:26.011Z,76.09
2018-11-14T14:08:56.472Z,76.54
2018-11-14T14:11:25.316Z,76.49
2018-11-14T14:14:00.346Z,76.06
2018-11-14T14:16:31.080Z,75.14
2018-11-14T14:19:00.472Z,74.92
2018-11-14T14:21:29.227Z,75.37
2018-11-14T14:23:58.651Z,75.77
2018-11-14T14:26:28.226Z,75.84
2018-11-14T14:28:57.152Z,75.40
2018-11-14T14:31:25.923Z,75.94
2018-11-14T14:33:55.701Z,75.48
2018-11-14T14:36:25.277Z,75.51
2018-11-14T14:38:55.366Z,75.64
2018-11-14T14:41:24.819Z,75.87
2018-11-14T14:43:54.320Z,75.92
2018-11-14T14:46:23.605Z,75.47
2018-11-14T14:48:53.825Z,75.88
2018-11-14T14:51:24.083Z,76.44
2018-11-14T14:53:54.384Z,76.36
2018-11-14T14:56:23.836Z,76.59
2018-11-14T14:58:52.916Z,76.73
2018-11-14T15:01:23.131Z,76.65
2018-11-14T15:03:54.201Z,76.88
2018-11-14T15:06:24.566Z,77.08
2018-11-14T15:08:54.971Z,77.46
2018-11-14T15:11:24.445Z,77.16
2018-11-14T15:13:54.253Z,77.58
2018-11-14T15:16:24.018Z,77.21
2018-11-14T15:19:06.871Z,77.29
2018-11-14T15:21:36.294Z,77.19
2018-11-14T15:24:05.895Z,77.42
2018-11-14T15:26:34.697Z,76.95
2018-11-14T15:29:03.748Z,77.27
2018-11-14T15:31:32.512Z,77.40
2018-11-14T15:34:01.343Z,78.16
2018-11-14T15:36:30.274Z,78.27
2018-11-14T15:38:59.654Z,78.44
2018-11-14T15:41:28.461Z,78.27
2018-11-14T15:43:58.523Z,78.91
2018-11-14T15:46:27.403Z,78.50
2018-11-14T15:48:56.702Z,78.71
2018-11-14T15:51:25.551Z,78.26
2018-11-14T15:53:55.817Z,78.23
2018-11-14T15:56:25.083Z,79.08
2018-11-14T15:58:54.670Z,79.06
2018-11-14T16:01:25.067Z,79.27
2018-11-14T16:03:55.395Z,79.71
2018-11-14T16:06:26.156Z,80.23
2018-11-14T16:08:56.885Z,79.98
2018-11-14T16:11:25.730Z,80.51
2018-11-14T16:14:00.002Z,80.59
2018-11-14T16:16:30.551Z,80.50
2018-11-14T16:19:00.361Z,80.55
2018-11-14T16:21:29.774Z,80.53
2018-11-14T16:23:59.580Z,80.13
2018-11-14T16:26:28.388Z,79.85
2018-11-14T16:28:57.323Z,80.12
2018-11-14T16:31:26.254Z,79.99
2018-11-14T16:33:55.269Z,80.29
2018-11-14T16:36:25.141Z,80.16
2018-11-14T16:38:55.074Z,80.16
2018-11-14T16:41:24.911Z,79.60
2018-11-14T16:43:54.471Z,79.93
2018-11-14T16:46:23.966Z,80.60
2018-11-14T16:48:54.019Z,80.57
2018-11-14T16:51:24.787Z,81.00
2018-11-14T16:53:55.049Z,80.98
2018-11-14T16:56:24.717Z,81.47
2018-11-14T16:58:54.478Z,82.62
2018-11-14T17:01:24.753Z,82.71
2018-11-14T17:03:54.425Z,82.93
2018-11-14T17:06:24.771Z,83.07
2018-11-14T17:08:54.450Z,83.20
2018-11-14T17:11:26.095Z,83.63
2018-11-14T17:13:55.543Z,84.09
2018-11-14T17:16:26.427Z,83.74
2018-11-14T17:18:56.345Z,83.71
2018-11-14T17:21:25.467Z,83.58
2018-11-14T17:23:55.645Z,83.83
2018-11-14T17:26:25.688Z,83.39
2018-11-14T17:28:55.610Z,83.16
2018-11-14T17:31:25.875Z,83.40
2018-11-14T17:33:55.717Z,83.56
2018-11-14T17:36:25.511Z,83.45
2018-11-14T17:38:55.106Z,84.04
2018-11-14T17:41:24.474Z,83.83
2018-11-14T17:43:53.952Z,84.21
2018-11-14T17:46:24.149Z,84.32
2018-11-14T17:48:54.022Z,84.49
2018-11-14T17:51:23.453Z,84.37
2018-11-14T17:53:54.600Z,84.30
2018-11-14T17:56:24.005Z,84.43
2018-11-14T17:58:54.106Z,84.18
2018-11-14T18:01:24.496Z,84.22
2018-11-14T18:03:53.749Z,84.10
2018-11-14T18:06:24.014Z,83.72
2018-11-14T18:08:53.529Z,83.42
2018-11-14T18:11:23.611Z,83.60
2018-11-14T18:13:52.804Z,83.33
2018-11-14T18:16:24.242Z,83.34
2018-11-14T18:18:54.576Z,83.47
2018-11-14T18:21:24.005Z,83.44
2018-11-14T18:23:54.797Z,83.17
2018-11-14T18:26:26.090Z,83.62
2018-11-14T18:28:55.789Z,83.67
2018-11-14T18:31:25.312Z,83.53
2018-11-14T18:33:54.999Z,83.19
2018-11-14T18:36:25.289Z,83.41
2018-11-14T18:38:54.778Z,83.28
2018-11-14T18:41:24.585Z,83.22
2018-11-14T18:43:53.975Z,83.47
2018-11-14T18:46:24.231Z,83.01
2018-11-14T18:48:53.646Z,82.91
2018-11-14T18:51:23.049Z,83.01
2018-11-14T18:53:53.466Z,82.64
2018-11-14T18:56:30.115Z,82.84
2018-11-14T18:58:59.770Z,82.63
2018-11-14T19:01:29.278Z,82.85
2018-11-14T19:03:58.136Z,82.70
2018-11-14T19:06:27.816Z,82.36
2018-11-14T19:08:56.661Z,82.32
2018-11-14T19:11:31.350Z,82.01
2018-11-14T19:14:00.649Z,82.47
2018-11-14T19:16:30.249Z,82.32
2018-11-14T19:18:59.635Z,82.48
2018-11-14T19:21:28.631Z,82.19
2018-11-14T19:23:58.026Z,81.98
2018-11-14T19:26:26.821Z,81.67
2018-11-14T19:28:55.638Z,82.39
2018-11-14T19:31:25.226Z,81.99
2018-11-14T19:33:55.689Z,81.84
2018-11-14T19:36:25.495Z,81.74
2018-11-14T19:38:55.260Z,81.93
2018-11-14T19:41:24.597Z,81.95
2018-11-14T19:43:55.330Z,82.19
2018-11-14T19:46:24.910Z,82.25
2018-11-14T19:48:54.309Z,82.56
2018-11-14T19:51:24.130Z,82.76
2018-11-14T19:53:54.647Z,82.24
2018-11-14T19:56:23.896Z,81.93
2018-11-14T19:58:54.452Z,82.55
2018-11-14T20:01:24.985Z,82.76
2018-11-14T20:03:56.688Z,82.35
2018-11-14T20:06:26.290Z,82.79
2018-11-14T20:08:55.635Z,82.42
2018-11-14T20:11:25.624Z,82.70
2018-11-14T20:13:57.111Z,82.74
2018-11-14T20:16:26.623Z,82.49
2018-11-14T20:18:56.054Z,83.12
2018-11-14T20:21:25.364Z,83.45
2018-11-14T20:23:55.478Z,83.15
2018-11-14T20:26:25.153Z,83.43
2018-11-14T20:28:55.272Z,83.30
2018-11-14T20:31:24.939Z,82.97
2018-11-14T20:33:54.365Z,83.17
2018-11-14T20:36:24.507Z,83.74
2018-11-14T20:38:54.510Z,83.40
2018-11-14T20:41:24.761Z,83.60
2018-11-14T20:43:55.138Z,83.75
2018-11-14T20:46:24.823Z,83.65
2018-11-14T20:48:54.905Z,83.62
2018-11-14T20:51:24.563Z,84.17
2018-11-14T20:53:54.966Z,84.17
2018-11-14T20:56:24.699Z,84.11
2018-11-14T20:58:55.357Z,84.05
2018-11-14T21:01:25.458Z,84.31
2018-11-14T21:03:55.033Z,84.37
2018-11-14T21:06:24.929Z,84.29
2018-11-14T21:08:55.383Z,84.61
2018-11-14T21:11:25.333Z,84.71
2018-11-14T21:13:56.073Z,85.11
2018-11-14T21:16:26.369Z,84.73
2018-11-14T21:18:56.491Z,84.88
2018-11-14T21:21:25.568Z,85.06
2018-11-14T21:23:55.496Z,85.02
2018-11-14T21:26:25.891Z,85.26
2018-11-14T21:28:56.489Z,85.43
2018-11-14T21:31:25.453Z,85.45
2018-11-14T21:33:55.983Z,85.46
2018-11-14T21:36:26.009Z,85.49
2018-11-14T21:38:55.590Z,85.66
2018-11-14T21:41:25.350Z,85.41
2018-11-14T21:43:55.147Z,85.98
2018-11-14T21:46:24.691Z,85.95
2018-11-14T21:48:54.502Z,85.93
2018-11-14T21:51:24.225Z,86.06
2018-11-14T21:53:54.351Z,86.39
2018-11-14T21:56:24.118Z,86.34
2018-11-14T21:58:54.441Z,86.74
2018-11-14T22:01:24.528Z,86.66
2018-11-14T22:03:54.019Z,86.98
2018-11-14T22:06:24.764Z,86.45
2018-11-14T22:08:54.696Z,87.01
2018-11-14T22:11:24.522Z,86.95
2018-11-14T22:13:54.402Z,86.86
2018-11-14T22:16:25.050Z,87.09
2018-11-14T22:18:56.004Z,87.17
2018-11-14T22:21:25.923Z,86.85
2018-11-14T22:23:56.301Z,87.43
2018-11-14T22:26:25.422Z,87.28
2018-11-14T22:28:55.159Z,87.39
2018-11-14T22:31:24.861Z,87.50
2018-11-14T22:33:54.519Z,87.59
2018-11-14T22:36:25.066Z,87.30
2018-11-14T22:38:54.907Z,87.83
2018-11-14T22:41:25.291Z,87.63
2018-11-14T22:43:54.932Z,87.89
2018-11-14T22:46:24.478Z,87.95
2018-11-14T22:48:54.698Z,87.90
2018-11-14T22:51:24.394Z,87.98
2018-11-14T22:53:54.609Z,88.05
2018-11-14T22:56:24.091Z,88.09
2018-11-14T22:58:55.384Z,87.52
2018-11-14T23:01:26.059Z,87.68
2018-11-14T23:03:55.976Z,87.59
2018-11-14T23:06:26.621Z,87.90
2018-11-14T23:08:55.634Z,87.76
2018-11-14T23:11:25.795Z,88.03
2018-11-14T23:13:56.435Z,88.25
2018-11-14T23:16:26.923Z,88.02
2018-11-14T23:18:56.646Z,87.88
2018-11-14T23:21:25.820Z,88.24
2018-11-14T23:23:56.036Z,88.42
2018-11-14T23:26:25.830Z,88.73
2018-11-14T23:28:55.530Z,88.55
2018-11-14T23:31:25.051Z,88.60
2018-11-14T23:33:54.826Z,88.35
2018-11-14T23:36:24.597Z,88.36
2018-11-14T23:38:55.026Z,88.34
2018-11-14T23:41:24.686Z,88.13
2018-11-14T23:43:55.151Z,88.46
2018-11-14T23:46:26.467Z,88.33
2018-11-14T23:48:56.274Z,88.23
2018-11-14T23:51:25.455Z,88.52
2018-11-14T23:53:55.933Z,88.54
2018-11-14T23:56:26.491Z,88.56
2018-11-14T23:58:57.811Z,88.19
